Crystal Springs, North Dakota
Current Conditions -  °F | °C
As of 4:38 PM on Monday 22 Dec 2014 (Local Time) from KJMS Reporting Station
Light Rain Light Rain  
Wind Chill: 24°   Ceiling: 300
Heat Index: 33°   Visibility: 0.75mi
Dew Point: 33°   Wind: 12mph
Humidity: 100%   Direction: 30°NNE
Pressure: 29.52"   Gusts: NA
Location:  46.8928°N, 99.3208°W
Report Text: KJMS 222238Z AUTO 03010KT 3/4SM -RA BR VV003 01/01 A2952 RMK AO2 UPE00RAB00 P0000 T00060006
Loading
Personal Weather Stations






























Interactive Weather Map New forecast layout! Learn more

10-Day Weather Forecast

Advertisements
Track Severe Weather on mobile